Time,TemperatureF,DewpointF,PressureIn,WindDirection,WindDirectionDegrees,WindSpeedMPH,WindSpeedGustMPH,Humidity,HourlyPrecipIn,Conditions,Clouds,dailyrainin,SolarRadiationWatts/m^2,SoftwareType,DateUTC
2013-04-13 00:00:00,70.9,68.1,29.90,NNW,333,0.0,0.0,91,0.00,CLR,,0.00,0.0,WeatherDisplay:10.37,2013-04-13 04:00:00,
2013-04-13 00:05:00,70.8,68.4,29.90,NNW,333,0.0,0.0,92,0.00,CLR,,0.00,0.0,WeatherDisplay:10.37,2013-04-13 04:05:00,
2013-04-13 00:56:00,70.4,68.0,29.89,NNW,333,0.0,0.0,92,0.00,CLR,,0.00,0.0,WeatherDisplay:10.37,2013-04-13 04:56:00,
2013-04-13 01:00:00,70.2,68.1,29.88,NNW,333,0.0,0.0,93,0.00,CLR,,0.00,0.0,WeatherDisplay:10.37,2013-04-13 05:00:00,
2013-04-13 01:01:00,70.3,68.2,29.89,NNW,333,0.0,0.0,93,0.00,CLR,,0.00,0.0,WeatherDisplay:10.37,2013-04-13 05:01:00,
2013-04-13 01:06:00,70.2,68.1,29.89,NNW,333,0.0,0.0,93,0.00,CLR,,0.00,0.0,WeatherDisplay:10.37,2013-04-13 05:06:00,
2013-04-13 01:54:00,70.1,68.3,29.89,NNW,333,0.0,0.0,94,0.00,CLR,,0.00,0.0,WeatherDisplay:10.37,2013-04-13 05:54:00,
2013-04-13 01:59:00,70.0,68.2,29.89,NNW,333,0.0,0.0,94,0.00,CLR,,0.00,0.0,WeatherDisplay:10.37,2013-04-13 05:59:00,
2013-04-13 02:00:00,69.8,68.0,29.88,NNW,333,0.0,0.0,94,0.00,CLR,,0.00,0.0,WeatherDisplay:10.37,2013-04-13 06:00:00,
2013-04-13 02:04:00,69.9,68.1,29.89,NNW,333,0.0,0.0,94,0.00,CLR,,0.00,0.0,WeatherDisplay:10.37,2013-04-13 06:04:00,
2013-04-13 02:09:00,69.8,68.0,29.89,NNW,333,0.0,0.0,94,0.00,CLR,,0.00,0.0,WeatherDisplay:10.37,2013-04-13 06:09:00,
2013-04-13 02:14:00,69.7,67.9,29.89,NNW,333,0.0,0.0,94,0.00,CLR,,0.00,0.0,WeatherDisplay:10.37,2013-04-13 06:14:00,
2013-04-13 02:19:00,69.6,67.8,29.89,NNW,333,0.0,0.0,94,0.00,CLR,,0.00,0.0,WeatherDisplay:10.37,2013-04-13 06:19:00,
2013-04-13 02:24:00,69.6,68.1,29.88,NNW,333,0.0,0.0,95,0.00,CLR,,0.00,0.0,WeatherDisplay:10.37,2013-04-13 06:24:00,
2013-04-13 02:29:00,69.6,68.1,29.88,NNW,333,0.0,0.0,95,0.00,CLR,,0.00,0.0,WeatherDisplay:10.37,2013-04-13 06:29:00,
2013-04-13 02:34:00,69.6,68.1,29.88,NNW,333,0.0,0.0,95,0.00,CLR,,0.00,0.0,WeatherDisplay:10.37,2013-04-13 06:34:00,
2013-04-13 02:39:00,69.6,68.1,29.88,NNW,333,0.0,0.0,95,0.00,CLR,,0.00,0.0,WeatherDisplay:10.37,2013-04-13 06:39:00,
2013-04-13 02:47:00,69.6,68.1,29.87,NNW,333,0.0,0.0,95,0.00,CLR,,0.00,0.0,WeatherDisplay:10.37,2013-04-13 06:47:00,
2013-04-13 02:53:00,69.6,68.1,29.87,NNW,333,0.0,0.0,95,0.00,CLR,,0.00,0.0,WeatherDisplay:10.37,2013-04-13 06:53:00,
2013-04-13 02:58:00,69.6,68.1,29.88,NNW,333,0.0,0.0,95,0.00,CLR,,0.00,0.0,WeatherDisplay:10.37,2013-04-13 06:58:00,
2013-04-13 03:00:00,69.6,68.1,29.88,NNW,333,0.0,0.0,95,0.00,CLR,,0.00,0.0,WeatherDisplay:10.37,2013-04-13 07:00:00,
2013-04-13 03:03:00,69.5,68.0,29.88,NNW,333,0.0,0.0,95,0.00,CLR,,0.00,0.0,WeatherDisplay:10.37,2013-04-13 07:03:00,
2013-04-13 03:08:00,69.5,68.0,29.88,NNW,333,0.0,0.0,95,0.00,CLR,,0.00,0.0,WeatherDisplay:10.37,2013-04-13 07:08:00,
2013-04-13 03:13:00,69.5,68.0,29.88,NNW,333,0.0,0.0,95,0.00,CLR,,0.00,0.0,WeatherDisplay:10.37,2013-04-13 07:13:00,
2013-04-13 03:18:00,69.7,68.2,29.88,NNW,333,0.0,0.0,95,0.00,CLR,,0.00,0.0,WeatherDisplay:10.37,2013-04-13 07:18:00,
2013-04-13 03:23:00,69.7,68.2,29.88,NNW,333,0.0,0.0,95,0.00,CLR,,0.00,0.0,WeatherDisplay:10.37,2013-04-13 07:23:00,
2013-04-13 03:28:00,69.7,68.2,29.88,NNW,333,0.0,0.0,95,0.00,CLR,,0.00,0.0,WeatherDisplay:10.37,2013-04-13 07:28:00,
2013-04-13 03:33:00,69.6,68.1,29.88,NNW,333,0.0,0.0,95,0.00,CLR,,0.00,0.0,WeatherDisplay:10.37,2013-04-13 07:33:00,
2013-04-13 03:38:00,69.5,68.0,29.87,NNW,333,0.0,0.0,95,0.00,CLR,,0.00,0.0,WeatherDisplay:10.37,2013-04-13 07:38:00,
2013-04-13 03:44:00,69.5,68.0,29.88,NNW,333,0.0,0.0,95,0.00,CLR,,0.00,0.0,WeatherDisplay:10.37,2013-04-13 07:44:00,
2013-04-13 03:49:00,69.4,67.9,29.88,NNW,333,0.0,0.0,95,0.00,CLR,,0.00,0.0,WeatherDisplay:10.37,2013-04-13 07:49:00,
2013-04-13 03:54:00,69.3,67.8,29.88,NNW,333,0.0,0.0,95,0.00,CLR,,0.00,0.0,WeatherDisplay:10.37,2013-04-13 07:54:00,
2013-04-13 03:59:00,69.2,67.7,29.87,NNW,333,0.0,0.0,95,0.00,CLR,,0.00,0.0,WeatherDisplay:10.37,2013-04-13 07:59:00,
2013-04-13 04:00:00,69.1,67.9,29.87,NNW,333,0.0,0.0,96,0.00,CLR,,0.00,0.0,WeatherDisplay:10.37,2013-04-13 08:00:00,
2013-04-13 04:04:00,69.3,67.8,29.87,NNW,333,0.0,0.0,95,0.00,CLR,,0.00,0.0,WeatherDisplay:10.37,2013-04-13 08:04:00,
2013-04-13 04:09:00,69.2,68.0,29.87,NNW,333,0.0,0.0,96,0.00,CLR,,0.00,0.0,WeatherDisplay:10.37,2013-04-13 08:09:00,
2013-04-13 04:14:00,69.0,67.8,29.87,NNW,333,0.0,0.0,96,0.00,CLR,,0.00,0.0,WeatherDisplay:10.37,2013-04-13 08:14:00,
2013-04-13 04:19:00,69.0,67.8,29.87,NNW,333,0.0,0.0,96,0.00,CLR,,0.00,0.0,WeatherDisplay:10.37,2013-04-13 08:19:00,
2013-04-13 04:24:00,69.0,67.8,29.87,NNW,333,0.0,0.0,96,0.00,CLR,,0.00,0.0,WeatherDisplay:10.37,2013-04-13 08:24:00,
2013-04-13 04:29:00,68.9,67.7,29.87,NNW,333,0.0,0.0,96,0.00,CLR,,0.00,0.0,WeatherDisplay:10.37,2013-04-13 08:29:00,
2013-04-13 04:34:00,68.9,67.7,29.88,NNW,333,0.0,0.0,96,0.00,CLR,,0.00,0.0,WeatherDisplay:10.37,2013-04-13 08:34:00,
2013-04-13 04:41:00,68.9,67.7,29.88,NNW,333,0.0,0.0,96,0.00,CLR,,0.00,0.0,WeatherDisplay:10.37,2013-04-13 08:41:00,
2013-04-13 04:48:00,69.0,67.8,29.88,NNW,333,0.0,0.0,96,0.00,CLR,,0.00,0.0,WeatherDisplay:10.37,2013-04-13 08:48:00,
2013-04-13 04:53:00,69.0,67.8,29.88,NNW,333,0.0,0.0,96,0.00,CLR,,0.00,0.0,WeatherDisplay:10.37,2013-04-13 08:53:00,
2013-04-13 04:58:00,68.9,67.7,29.88,NNW,333,0.0,0.0,96,0.00,CLR,,0.00,0.0,WeatherDisplay:10.37,2013-04-13 08:58:00,
2013-04-13 05:00:00,68.7,67.5,29.88,NNW,333,0.0,0.0,96,0.00,CLR,,0.00,0.0,WeatherDisplay:10.37,2013-04-13 09:00:00,
2013-04-13 05:03:00,68.8,67.6,29.88,NNW,333,0.0,0.0,96,0.00,CLR,,0.00,0.0,WeatherDisplay:10.37,2013-04-13 09:03:00,
2013-04-13 05:08:00,68.8,67.6,29.87,NNW,333,0.0,0.0,96,0.00,CLR,,0.00,0.0,WeatherDisplay:10.37,2013-04-13 09:08:00,
2013-04-13 05:14:00,68.7,67.5,29.88,NNW,333,0.0,0.0,96,0.00,CLR,,0.00,0.0,WeatherDisplay:10.37,2013-04-13 09:14:00,
2013-04-13 05:19:00,68.6,67.4,29.88,NNW,333,0.0,0.0,96,0.00,CLR,,0.00,0.0,WeatherDisplay:10.37,2013-04-13 09:19:00,
2013-04-13 05:24:00,68.4,67.2,29.88,NNW,333,0.0,0.0,96,0.00,CLR,,0.00,0.0,WeatherDisplay:10.37,2013-04-13 09:24:00,
2013-04-13 05:29:00,68.3,67.1,29.87,NNW,333,0.0,0.0,96,0.00,CLR,,0.00,0.0,WeatherDisplay:10.37,2013-04-13 09:29:00,
2013-04-13 05:34:00,68.3,67.1,29.88,NNW,333,0.0,0.0,96,0.00,CLR,,0.00,0.0,WeatherDisplay:10.37,2013-04-13 09:34:00,
2013-04-13 05:39:00,68.2,67.0,29.88,NNW,333,0.0,0.0,96,0.00,CLR,,0.00,0.0,WeatherDisplay:10.37,2013-04-13 09:39:00,
2013-04-13 05:44:00,68.0,66.8,29.88,NNW,333,0.0,0.0,96,0.00,CLR,,0.00,0.0,WeatherDisplay:10.37,2013-04-13 09:44:00,
2013-04-13 05:52:00,67.9,67.0,29.88,NNW,333,0.0,0.0,97,0.00,CLR,,0.00,0.0,WeatherDisplay:10.37,2013-04-13 09:52:00,
2013-04-13 05:57:00,67.9,67.0,29.88,NNW,333,0.0,0.0,97,0.00,CLR,,0.00,0.0,WeatherDisplay:10.37,2013-04-13 09:57:00,
2013-04-13 06:00:00,67.8,66.9,29.87,NNW,333,0.0,0.0,97,0.00,CLR,,0.00,0.0,WeatherDisplay:10.37,2013-04-13 10:00:00,
2013-04-13 06:02:00,67.9,67.0,29.88,NNW,333,0.0,0.0,97,0.00,CLR,,0.00,0.0,WeatherDisplay:10.37,2013-04-13 10:02:00,
2013-04-13 06:07:00,67.8,66.9,29.87,NNW,333,0.0,0.0,97,0.00,CLR,,0.00,0.0,WeatherDisplay:10.37,2013-04-13 10:07:00,
2013-04-13 06:13:00,67.7,66.8,29.88,NNW,333,0.0,0.0,97,0.00,CLR,,0.00,0.0,WeatherDisplay:10.37,2013-04-13 10:13:00,
2013-04-13 06:18:00,67.6,66.7,29.88,NNW,333,0.0,0.0,97,0.00,CLR,,0.00,0.0,WeatherDisplay:10.37,2013-04-13 10:18:00,
2013-04-13 06:23:00,67.6,66.7,29.88,NNW,333,0.0,0.0,97,0.00,CLR,,0.00,0.0,WeatherDisplay:10.37,2013-04-13 10:23:00,
2013-04-13 06:30:00,67.5,66.6,29.88,NNW,333,0.0,0.0,97,0.00,CLR,,0.00,0.0,WeatherDisplay:10.37,2013-04-13 10:30:00,
2013-04-13 06:35:00,67.4,66.5,29.89,NNW,333,0.0,0.0,97,0.00,CLR,,0.00,0.0,WeatherDisplay:10.37,2013-04-13 10:35:00,
2013-04-13 06:40:00,67.4,66.5,29.89,NNW,333,0.0,0.0,97,0.00,CLR,,0.00,0.0,WeatherDisplay:10.37,2013-04-13 10:40:00,
2013-04-13 06:48:00,67.3,66.4,29.89,NNW,333,0.0,0.0,97,0.00,CLR,,0.00,0.0,WeatherDisplay:10.37,2013-04-13 10:48:00,
2013-04-13 06:53:00,67.3,66.4,29.90,NNW,333,0.0,0.0,97,0.00,CLR,,0.00,0.0,WeatherDisplay:10.37,2013-04-13 10:53:00,
2013-04-13 06:58:00,67.3,66.4,29.90,NNW,333,0.0,0.0,97,0.00,CLR,,0.00,0.0,WeatherDisplay:10.37,2013-04-13 10:58:00,
2013-04-13 07:00:00,67.7,66.8,29.90,NNW,333,0.0,0.0,97,0.00,OVC,,0.00,0.0,WeatherDisplay:10.37,2013-04-13 11:00:00,
2013-04-13 07:03:00,67.5,66.6,29.90,NNW,333,0.0,0.0,97,0.00,OVC,,0.00,0.0,WeatherDisplay:10.37,2013-04-13 11:03:00,
2013-04-13 07:08:00,67.5,66.6,29.90,NNW,333,0.0,0.0,97,0.00,OVC,,0.00,0.0,WeatherDisplay:10.37,2013-04-13 11:08:00,
2013-04-13 07:13:00,67.8,67.2,29.90,NNW,333,0.0,0.0,98,0.00,OVC,,0.00,0.0,WeatherDisplay:10.37,2013-04-13 11:13:00,
2013-04-13 07:19:00,67.7,66.8,29.90,NNW,333,0.0,0.0,97,0.00,OVC,,0.00,7.0,WeatherDisplay:10.37,2013-04-13 11:19:00,
2013-04-13 07:29:00,67.6,66.7,29.91,NNW,333,0.0,0.0,97,0.00,OVC,,0.00,14.0,WeatherDisplay:10.37,2013-04-13 11:29:00,
2013-04-13 07:35:00,68.0,67.4,29.92,NNW,333,0.0,0.0,98,0.00,OVC,,0.00,19.0,WeatherDisplay:10.37,2013-04-13 11:35:00,
2013-04-13 07:40:00,68.3,67.4,29.92,NW,307,0.0,0.0,97,0.00,OVC,,0.00,26.0,WeatherDisplay:10.37,2013-04-13 11:40:00,
2013-04-13 07:45:00,68.5,67.9,29.92,West,263,0.0,0.0,98,0.00,OVC,,0.00,30.0,WeatherDisplay:10.37,2013-04-13 11:45:00,
2013-04-13 07:50:00,68.6,67.7,29.92,WNW,300,0.0,0.0,97,0.00,OVC,,0.00,32.0,WeatherDisplay:10.37,2013-04-13 11:50:00,
2013-04-13 07:55:00,68.6,67.7,29.93,WNW,290,0.0,0.0,97,0.00,OVC,,0.00,37.0,WeatherDisplay:10.37,2013-04-13 11:55:00,
2013-04-13 08:00:00,68.6,67.7,29.93,WNW,293,0.0,0.0,97,0.00,OVC,,0.00,51.0,WeatherDisplay:10.37,2013-04-13 12:00:00,
2013-04-13 08:05:00,68.8,67.9,29.93,WNW,298,0.0,0.0,97,0.00,OVC,,0.00,83.0,WeatherDisplay:10.37,2013-04-13 12:05:00,
2013-04-13 08:12:00,69.0,67.8,29.93,NW,306,0.0,0.0,96,0.00,OVC,,0.00,118.0,WeatherDisplay:10.37,2013-04-13 12:12:00,
2013-04-13 08:18:00,69.7,68.5,29.93,NW,306,0.0,0.0,96,0.00,OVC,,0.00,197.0,WeatherDisplay:10.37,2013-04-13 12:18:00,
2013-04-13 08:23:00,70.2,68.7,29.93,NW,306,0.0,0.0,95,0.00,OVC,,0.00,141.0,WeatherDisplay:10.37,2013-04-13 12:23:00,
2013-04-13 08:28:00,70.5,68.7,29.94,NW,306,0.0,0.0,94,0.00,OVC,,0.00,128.0,WeatherDisplay:10.37,2013-04-13 12:28:00,
2013-04-13 08:33:00,70.4,68.0,29.94,NW,306,0.0,0.0,92,0.00,OVC,,0.00,58.0,WeatherDisplay:10.37,2013-04-13 12:33:00,
2013-04-13 08:38:00,70.3,67.9,29.95,WNW,303,0.0,0.0,92,0.00,OVC,,0.00,46.0,WeatherDisplay:10.37,2013-04-13 12:38:00,
2013-04-13 08:43:00,70.2,67.8,29.95,NW,306,0.0,0.0,92,0.00,OVC,,0.00,56.0,WeatherDisplay:10.37,2013-04-13 12:43:00,
2013-04-13 08:48:00,70.1,67.7,29.95,NW,309,0.0,0.0,92,0.00,OVC,,0.00,70.0,WeatherDisplay:10.37,2013-04-13 12:48:00,
2013-04-13 08:53:00,70.2,67.8,29.95,West,281,0.0,0.0,92,0.00,OVC,,0.00,221.0,WeatherDisplay:10.37,2013-04-13 12:53:00,
2013-04-13 08:58:00,70.6,68.2,29.95,NW,311,0.0,0.0,92,0.00,OVC,,0.00,260.0,WeatherDisplay:10.37,2013-04-13 12:58:00,
2013-04-13 09:00:00,71.3,68.2,29.95,NW,304,0.0,0.0,90,0.00,OVC,,0.00,313.0,WeatherDisplay:10.37,2013-04-13 13:00:00,
2013-04-13 09:03:00,71.0,68.2,29.95,NW,304,0.0,0.0,91,0.00,OVC,,0.00,232.0,WeatherDisplay:10.37,2013-04-13 13:03:00,
2013-04-13 09:08:00,71.3,68.2,29.95,WNW,300,0.0,0.0,90,0.00,OVC,,0.00,302.0,WeatherDisplay:10.37,2013-04-13 13:08:00,
2013-04-13 09:14:00,71.9,68.5,29.95,NW,325,4.6,4.6,89,0.00,OVC,,0.00,308.0,WeatherDisplay:10.37,2013-04-13 13:14:00,
2013-04-13 09:22:00,72.4,68.6,29.95,NW,321,3.4,4.0,88,0.00,OVC,,0.00,183.0,WeatherDisplay:10.37,2013-04-13 13:22:00,
2013-04-13 09:32:00,72.7,68.6,29.95,WNW,295,3.4,3.4,87,0.00,OVC,,0.00,234.0,WeatherDisplay:10.37,2013-04-13 13:32:00,
2013-04-13 09:38:00,72.5,68.1,29.96,NW,306,4.0,4.0,86,0.00,OVC,,0.00,334.0,WeatherDisplay:10.37,2013-04-13 13:38:00,
2013-04-13 09:43:00,72.9,68.5,29.96,West,276,4.6,4.6,86,0.00,OVC,,0.00,200.0,WeatherDisplay:10.37,2013-04-13 13:43:00,
2013-04-13 09:48:00,73.2,68.4,29.96,WNW,302,4.6,4.6,85,0.00,OVC,,0.00,130.0,WeatherDisplay:10.37,2013-04-13 13:48:00,
2013-04-13 09:53:00,73.4,68.6,29.96,West,276,3.4,3.4,85,0.00,OVC,,0.00,127.0,WeatherDisplay:10.37,2013-04-13 13:53:00,
2013-04-13 09:58:00,73.4,68.3,29.96,NW,314,5.8,5.8,84,0.00,OVC,,0.00,114.0,WeatherDisplay:10.37,2013-04-13 13:58:00,
2013-04-13 10:00:00,74.2,68.7,29.96,West,277,4.6,4.6,83,0.00,OVC,,0.00,111.0,WeatherDisplay:10.37,2013-04-13 14:00:00,
2013-04-13 10:03:00,73.6,68.8,29.96,WNW,302,3.4,3.4,85,0.00,OVC,,0.00,107.0,WeatherDisplay:10.37,2013-04-13 14:03:00,
2013-04-13 10:08:00,74.2,68.7,29.96,West,275,6.0,6.0,83,0.00,OVC,,0.00,111.0,WeatherDisplay:10.37,2013-04-13 14:08:00,
2013-04-13 10:13:00,74.0,68.5,29.97,NW,309,6.9,6.9,83,0.00,OVC,,0.00,127.0,WeatherDisplay:10.37,2013-04-13 14:13:00,
2013-04-13 10:20:00,74.2,68.7,29.97,SW,234,5.8,5.8,83,0.00,OVC,,0.00,392.0,WeatherDisplay:10.37,2013-04-13 14:20:00,
2013-04-13 10:25:00,74.7,68.5,29.97,NW,307,6.0,6.0,81,0.00,BKN,,0.00,557.0,WeatherDisplay:10.37,2013-04-13 14:25:00,
2013-04-13 10:30:00,74.5,68.6,29.97,NW,311,6.9,6.9,82,0.00,BKN,,0.00,566.0,WeatherDisplay:10.37,2013-04-13 14:30:00,
2013-04-13 10:35:00,74.5,67.9,29.96,WNW,303,6.0,6.0,80,0.00,BKN,,0.00,582.0,WeatherDisplay:10.37,2013-04-13 14:35:00,
2013-04-13 10:40:00,74.1,68.3,29.97,WNW,302,6.0,6.0,82,0.00,BKN,,0.00,598.0,WeatherDisplay:10.37,2013-04-13 14:40:00,
2013-04-13 10:45:00,74.6,68.7,29.96,WNW,302,6.9,6.9,82,0.00,BKN,,0.00,615.0,WeatherDisplay:10.37,2013-04-13 14:45:00,
2013-04-13 10:50:00,74.4,68.2,29.97,WNW,300,6.9,6.9,81,0.00,BKN,,0.00,631.0,WeatherDisplay:10.37,2013-04-13 14:50:00,
2013-04-13 10:55:00,75.1,68.5,29.96,WNW,296,8.1,8.1,80,0.00,BKN,,0.00,640.0,WeatherDisplay:10.37,2013-04-13 14:55:00,
2013-04-13 11:00:00,75.0,68.4,29.96,WSW,255,3.4,3.4,80,0.00,SCT,,0.00,663.0,WeatherDisplay:10.37,2013-04-13 15:00:00,
2013-04-13 11:05:00,76.0,69.0,29.96,WNW,286,4.6,4.6,79,0.00,SCT,,0.00,671.0,WeatherDisplay:10.37,2013-04-13 15:05:00,
2013-04-13 11:12:00,75.7,68.4,29.96,West,280,8.1,8.1,78,0.00,SCT,,0.00,687.0,WeatherDisplay:10.37,2013-04-13 15:12:00,
2013-04-13 11:17:00,76.0,68.6,29.96,WNW,299,5.0,5.0,78,0.00,SCT,,0.00,694.0,WeatherDisplay:10.37,2013-04-13 15:17:00,
2013-04-13 11:25:00,76.8,69.0,29.96,WNW,292,6.9,6.9,77,0.00,SCT,,0.00,726.0,WeatherDisplay:10.37,2013-04-13 15:25:00,
2013-04-13 11:30:00,77.0,68.9,29.96,WSW,248,4.6,4.6,76,0.00,SCT,,0.00,737.0,WeatherDisplay:10.37,2013-04-13 15:30:00,
2013-04-13 11:35:00,77.7,69.5,29.97,WNW,298,8.1,8.1,76,0.00,SCT,,0.00,752.0,WeatherDisplay:10.37,2013-04-13 15:35:00,
2013-04-13 11:40:00,77.3,68.8,29.97,West,259,8.1,8.1,75,0.00,SCT,,0.00,766.0,WeatherDisplay:10.37,2013-04-13 15:40:00,
2013-04-13 11:45:00,77.5,68.6,29.97,West,278,10.3,10.3,74,0.00,SCT,,0.00,777.0,WeatherDisplay:10.37,2013-04-13 15:45:00,
2013-04-13 11:50:00,77.5,68.9,29.97,WSW,257,8.1,8.1,75,0.00,SCT,,0.00,788.0,WeatherDisplay:10.37,2013-04-13 15:50:00,
2013-04-13 11:55:00,77.8,69.6,29.97,WSW,242,5.8,5.8,76,0.00,SCT,,0.00,810.0,WeatherDisplay:10.37,2013-04-13 15:55:00,
2013-04-13 12:00:00,77.9,69.3,29.97,WSW,250,5.8,5.8,75,0.00,SCT,,0.00,830.0,WeatherDisplay:10.37,2013-04-13 16:00:00,
2013-04-13 12:05:00,77.7,69.9,29.97,West,278,6.9,6.9,77,0.00,SCT,,0.00,733.0,WeatherDisplay:10.37,2013-04-13 16:05:00,
2013-04-13 12:10:00,77.3,69.5,29.97,West,267,6.9,6.9,77,0.00,SCT,,0.00,835.0,WeatherDisplay:10.37,2013-04-13 16:10:00,
2013-04-13 12:15:00,77.2,69.8,29.97,West,278,6.9,6.9,78,0.00,SCT,,0.00,842.0,WeatherDisplay:10.37,2013-04-13 16:15:00,
2013-04-13 12:23:00,77.1,69.7,29.97,WNW,287,8.1,8.1,78,0.00,SCT,,0.00,860.0,WeatherDisplay:10.37,2013-04-13 16:23:00,
2013-04-13 12:29:00,76.8,69.8,29.96,West,277,6.9,6.9,79,0.00,SCT,,0.00,867.0,WeatherDisplay:10.37,2013-04-13 16:29:00,
2013-04-13 12:34:00,77.5,70.1,29.96,SW,236,4.6,5.3,78,0.00,SCT,,0.00,807.0,WeatherDisplay:10.37,2013-04-13 16:34:00,
2013-04-13 12:39:00,77.5,69.7,29.96,SW,236,6.9,6.9,77,0.00,SCT,,0.00,860.0,WeatherDisplay:10.37,2013-04-13 16:39:00,
2013-04-13 12:44:00,78.2,70.0,29.96,SW,229,6.9,6.9,76,0.00,SCT,,0.00,863.0,WeatherDisplay:10.37,2013-04-13 16:44:00,
2013-04-13 12:49:00,78.4,70.2,29.96,SW,233,6.9,6.9,76,0.00,SCT,,0.00,895.0,WeatherDisplay:10.37,2013-04-13 16:49:00,
2013-04-13 12:54:00,77.6,69.0,29.96,WSW,249,9.2,9.2,75,0.00,SCT,,0.00,884.0,WeatherDisplay:10.37,2013-04-13 16:54:00,
2013-04-13 12:59:00,78.0,69.8,29.96,NW,310,9.2,9.2,76,0.00,SCT,,0.00,893.0,WeatherDisplay:10.37,2013-04-13 16:59:00,
2013-04-13 13:00:00,77.8,69.6,29.95,West,261,9.2,9.2,76,0.00,FEW,,0.00,916.0,WeatherDisplay:10.37,2013-04-13 17:00:00,
2013-04-13 13:04:00,77.3,69.5,29.95,West,277,4.6,4.6,77,0.00,FEW,,0.00,905.0,WeatherDisplay:10.37,2013-04-13 17:04:00,
2013-04-13 13:09:00,78.0,69.8,29.95,WNW,298,9.2,9.2,76,0.00,FEW,,0.00,904.0,WeatherDisplay:10.37,2013-04-13 17:09:00,
2013-04-13 13:19:00,79.1,70.1,29.95,West,267,8.1,8.1,74,0.00,FEW,,0.00,909.0,WeatherDisplay:10.37,2013-04-13 17:19:00,
2013-04-13 13:24:00,78.6,70.0,29.95,WNW,292,8.1,8.1,75,0.00,SCT,,0.00,844.0,WeatherDisplay:10.37,2013-04-13 17:24:00,
2013-04-13 13:29:00,78.2,69.6,29.95,WSW,247,6.9,6.9,75,0.00,FEW,,0.00,909.0,WeatherDisplay:10.37,2013-04-13 17:29:00,
2013-04-13 13:34:00,78.5,69.9,29.95,NW,313,4.0,4.0,75,0.00,FEW,,0.00,912.0,WeatherDisplay:10.37,2013-04-13 17:34:00,
2013-04-13 13:39:00,78.3,69.3,29.94,WSW,255,5.8,5.8,74,0.00,FEW,,0.00,919.0,WeatherDisplay:10.37,2013-04-13 17:39:00,
2013-04-13 13:44:00,78.5,69.5,29.94,WNW,297,6.9,6.9,74,0.00,FEW,,0.00,921.0,WeatherDisplay:10.37,2013-04-13 17:44:00,
2013-04-13 13:49:00,78.4,69.4,29.94,NW,310,5.8,5.8,74,0.00,FEW,,0.00,926.0,WeatherDisplay:10.37,2013-04-13 17:49:00,
2013-04-13 13:54:00,78.6,69.2,29.94,NW,304,9.2,9.2,73,0.00,FEW,,0.00,925.0,WeatherDisplay:10.37,2013-04-13 17:54:00,
2013-04-13 13:59:00,78.6,69.6,29.93,WNW,303,8.1,8.1,74,0.00,SCT,,0.00,766.0,WeatherDisplay:10.37,2013-04-13 17:59:00,
2013-04-13 14:00:00,78.9,69.1,29.93,WNW,283,5.8,5.8,72,0.00,CLR,,0.00,914.0,WeatherDisplay:10.37,2013-04-13 18:00:00,
2013-04-13 14:04:00,78.5,69.9,29.93,WSW,238,4.6,4.6,75,0.00,CLR,,0.00,928.0,WeatherDisplay:10.37,2013-04-13 18:04:00,
2013-04-13 14:09:00,79.0,69.6,29.93,NNW,327,3.4,3.4,73,0.00,CLR,,0.00,911.0,WeatherDisplay:10.37,2013-04-13 18:09:00,
2013-04-13 14:15:00,79.1,69.3,29.93,WNW,302,8.1,8.1,72,0.00,CLR,,0.00,904.0,WeatherDisplay:10.37,2013-04-13 18:15:00,
2013-04-13 14:20:00,78.6,70.0,29.93,West,277,5.8,5.8,75,0.00,CLR,,0.00,905.0,WeatherDisplay:10.37,2013-04-13 18:20:00,
2013-04-13 14:25:00,78.9,69.9,29.92,WNW,290,10.3,10.3,74,0.00,CLR,,0.00,902.0,WeatherDisplay:10.37,2013-04-13 18:25:00,
2013-04-13 14:38:00,78.5,69.5,29.92,NW,306,7.0,7.0,74,0.00,CLR,,0.00,884.0,WeatherDisplay:10.37,2013-04-13 18:38:00,
2013-04-13 14:43:00,78.4,69.0,29.92,NW,309,6.9,6.9,73,0.00,CLR,,0.00,786.0,WeatherDisplay:10.37,2013-04-13 18:43:00,
2013-04-13 14:49:00,78.8,69.0,29.92,WNW,288,9.2,9.2,72,0.00,CLR,,0.00,865.0,WeatherDisplay:10.37,2013-04-13 18:49:00,
2013-04-13 14:54:00,77.8,68.4,29.92,NW,306,10.3,10.3,73,0.00,CLR,,0.00,865.0,WeatherDisplay:10.37,2013-04-13 18:54:00,
2013-04-13 14:59:00,78.2,68.8,29.92,WNW,299,10.3,10.3,73,0.00,CLR,,0.00,856.0,WeatherDisplay:10.37,2013-04-13 18:59:00,
2013-04-13 15:00:00,78.5,68.3,29.91,West,277,9.2,9.2,71,0.00,CLR,,0.00,842.0,WeatherDisplay:10.37,2013-04-13 19:00:00,
2013-04-13 15:04:00,77.8,68.4,29.91,North,355,6.9,6.9,73,0.00,CLR,,0.00,858.0,WeatherDisplay:10.37,2013-04-13 19:04:00,
2013-04-13 15:09:00,78.6,68.0,29.91,NW,311,9.2,9.2,70,0.00,CLR,,0.00,849.0,WeatherDisplay:10.37,2013-04-13 19:09:00,
2013-04-13 15:20:00,79.0,68.4,29.91,WSW,247,8.1,8.1,70,0.00,CLR,,0.00,831.0,WeatherDisplay:10.37,2013-04-13 19:20:00,
2013-04-13 15:29:00,78.9,68.7,29.91,WNW,286,5.8,5.8,71,0.00,CLR,,0.00,816.0,WeatherDisplay:10.37,2013-04-13 19:29:00,
2013-04-13 15:50:00,79.1,68.5,29.90,NW,313,6.9,6.9,70,0.00,CLR,,0.00,773.0,WeatherDisplay:10.37,2013-04-13 19:50:00,
2013-04-13 15:57:00,78.7,68.9,29.89,WNW,284,6.9,6.9,72,0.00,CLR,,0.00,763.0,WeatherDisplay:10.37,2013-04-13 19:57:00,
2013-04-13 16:00:00,79.7,69.0,29.90,WNW,294,5.8,5.8,70,0.00,CLR,,0.00,677.0,WeatherDisplay:10.37,2013-04-13 20:00:00,
2013-04-13 16:02:00,79.1,69.3,29.89,WNW,288,4.0,4.0,72,0.00,CLR,,0.00,752.0,WeatherDisplay:10.37,2013-04-13 20:02:00,
2013-04-13 16:07:00,80.2,69.1,29.89,West,273,5.8,5.8,69,0.00,CLR,,0.00,758.0,WeatherDisplay:10.37,2013-04-13 20:07:00,
2013-04-13 16:28:00,77.9,68.5,29.90,West,259,6.9,6.9,73,0.00,CLR,,0.00,763.0,WeatherDisplay:10.37,2013-04-13 20:28:00,
2013-04-13 16:34:00,78.9,68.7,29.90,West,279,6.9,6.9,71,0.00,CLR,,0.00,661.0,WeatherDisplay:10.37,2013-04-13 20:34:00,
2013-04-13 16:48:00,77.8,67.2,29.90,WNW,297,8.1,8.1,70,0.00,CLR,,0.00,622.0,WeatherDisplay:10.37,2013-04-13 20:48:00,
2013-04-13 16:56:00,77.3,68.0,29.90,West,275,6.0,6.0,73,0.00,CLR,,0.00,594.0,WeatherDisplay:10.37,2013-04-13 20:56:00,
2013-04-13 17:00:00,77.3,67.6,29.90,WNW,302,5.8,5.8,72,0.00,CLR,,0.00,548.0,WeatherDisplay:10.37,2013-04-13 21:00:00,
2013-04-13 17:01:00,77.8,68.0,29.90,WNW,302,10.3,10.3,72,0.00,CLR,,0.00,575.0,WeatherDisplay:10.37,2013-04-13 21:01:00,
2013-04-13 17:06:00,77.3,67.6,29.90,WSW,250,11.5,11.5,72,0.00,CLR,,0.00,557.0,WeatherDisplay:10.37,2013-04-13 21:06:00,
2013-04-13 17:26:00,76.3,67.4,29.90,NW,313,11.5,11.5,74,0.00,CLR,,0.00,489.0,WeatherDisplay:10.37,2013-04-13 21:26:00,
2013-04-13 17:45:00,76.0,67.5,29.91,SW,234,7.0,7.0,75,0.00,CLR,,0.00,417.0,WeatherDisplay:10.37,2013-04-13 21:45:00,
2013-04-13 17:56:00,75.6,67.1,29.91,WNW,299,9.2,9.2,75,0.00,CLR,,0.00,369.0,WeatherDisplay:10.37,2013-04-13 21:56:00,
2013-04-13 18:00:00,75.8,67.3,29.91,WNW,287,7.0,7.0,75,0.00,OVC,,0.00,330.0,WeatherDisplay:10.37,2013-04-13 22:00:00,
2013-04-13 18:01:00,75.5,67.4,29.91,West,272,9.2,9.2,76,0.00,CLR,,0.00,352.0,WeatherDisplay:10.37,2013-04-13 22:01:00,
2013-04-13 18:06:00,75.6,67.1,29.91,WNW,286,8.1,8.1,75,0.00,OVC,,0.00,362.0,WeatherDisplay:10.37,2013-04-13 22:06:00,
2013-04-13 18:25:00,75.1,66.6,29.91,WSW,255,3.4,3.4,75,0.00,OVC,,0.00,109.0,WeatherDisplay:10.37,2013-04-13 22:25:00,
2013-04-13 18:39:00,74.8,66.0,29.90,NW,314,8.1,8.1,74,0.00,OVC,,0.00,84.0,WeatherDisplay:10.37,2013-04-13 22:39:00,
2013-04-13 18:56:00,74.4,66.0,29.91,West,275,9.0,9.0,75,0.00,OVC,,0.00,42.0,WeatherDisplay:10.37,2013-04-13 22:56:00,
2013-04-13 19:00:00,73.9,65.9,29.91,WNW,296,5.8,5.8,76,0.00,OVC,,0.00,44.0,WeatherDisplay:10.37,2013-04-13 23:00:00,
2013-04-13 19:01:00,74.1,65.7,29.91,WNW,290,6.9,6.9,75,0.00,OVC,,0.00,35.0,WeatherDisplay:10.37,2013-04-13 23:01:00,
2013-04-13 19:06:00,74.0,65.6,29.91,WNW,300,5.8,5.8,75,0.00,OVC,,0.00,39.0,WeatherDisplay:10.37,2013-04-13 23:06:00,
2013-04-13 19:32:00,73.7,65.3,29.90,WNW,299,4.6,4.6,75,0.00,OVC,,0.00,26.0,WeatherDisplay:10.37,2013-04-13 23:32:00,
2013-04-13 19:47:00,73.6,65.6,29.91,WNW,291,4.0,4.0,76,0.00,OVC,,0.00,9.0,WeatherDisplay:10.37,2013-04-13 23:47:00,
2013-04-13 19:56:00,73.5,65.8,29.90,WNW,298,3.4,3.4,77,0.00,OVC,,0.00,0.0,WeatherDisplay:10.37,2013-04-13 23:56:00,
2013-04-13 20:00:00,73.1,65.8,29.90,NW,310,2.3,2.3,78,0.00,CLR,,0.00,0.0,WeatherDisplay:10.37,2013-04-14 00:00:00,
2013-04-13 20:01:00,73.4,65.7,29.90,NW,313,4.6,4.6,77,0.00,CLR,,0.00,0.0,WeatherDisplay:10.37,2013-04-14 00:01:00,
2013-04-13 20:06:00,73.2,65.9,29.90,WNW,299,3.4,3.4,78,0.00,CLR,,0.00,0.0,WeatherDisplay:10.37,2013-04-14 00:06:00,
2013-04-13 20:17:00,72.9,66.0,29.90,NW,315,2.3,2.3,79,0.00,CLR,,0.00,0.0,WeatherDisplay:10.37,2013-04-14 00:17:00,
2013-04-13 20:34:00,72.6,66.4,29.90,NW,315,3.4,3.4,81,0.00,CLR,,0.00,0.0,WeatherDisplay:10.37,2013-04-14 00:34:00,
2013-04-13 20:40:00,72.5,66.3,29.90,NW,315,3.4,3.4,81,0.00,CLR,,0.00,0.0,WeatherDisplay:10.37,2013-04-14 00:40:00,
2013-04-13 20:50:00,72.0,66.2,29.90,NW,315,3.4,3.4,82,0.00,CLR,,0.00,0.0,WeatherDisplay:10.37,2013-04-14 00:50:00,
2013-04-13 20:56:00,71.8,66.0,29.90,NW,315,1.1,1.1,82,0.00,CLR,,0.00,0.0,WeatherDisplay:10.37,2013-04-14 00:56:00,
2013-04-13 21:00:00,71.5,66.1,29.91,NW,315,3.4,3.4,83,0.00,CLR,,0.00,0.0,WeatherDisplay:10.37,2013-04-14 01:00:00,
2013-04-13 21:01:00,71.6,66.2,29.91,NW,315,3.4,3.4,83,0.00,CLR,,0.00,0.0,WeatherDisplay:10.37,2013-04-14 01:01:00,
2013-04-13 21:06:00,71.5,66.1,29.91,NW,315,3.4,3.4,83,0.00,CLR,,0.00,0.0,WeatherDisplay:10.37,2013-04-14 01:06:00,
2013-04-13 21:13:00,71.4,66.0,29.91,NW,315,3.4,3.4,83,0.00,CLR,,0.00,0.0,WeatherDisplay:10.37,2013-04-14 01:13:00,
2013-04-13 21:34:00,71.0,66.3,29.93,NW,315,1.1,1.1,85,0.00,CLR,,0.00,0.0,WeatherDisplay:10.37,2013-04-14 01:34:00,
2013-04-13 21:39:00,70.7,66.0,29.94,NW,315,2.3,2.3,85,0.00,CLR,,0.00,0.0,WeatherDisplay:10.37,2013-04-14 01:39:00,
2013-04-13 21:51:00,70.7,66.0,29.94,NW,315,2.3,2.3,85,0.00,CLR,,0.00,0.0,WeatherDisplay:10.37,2013-04-14 01:51:00,
2013-04-13 21:56:00,70.6,65.9,29.94,NW,315,3.4,3.4,85,0.00,CLR,,0.00,0.0,WeatherDisplay:10.37,2013-04-14 01:56:00,
2013-04-13 22:00:00,70.4,65.7,29.95,NW,315,0.0,0.0,85,0.00,CLR,,0.00,0.0,WeatherDisplay:10.37,2013-04-14 02:00:00,
2013-04-13 22:01:00,70.7,66.0,29.94,NW,315,3.4,3.4,85,0.00,CLR,,0.00,0.0,WeatherDisplay:10.37,2013-04-14 02:01:00,
2013-04-13 22:06:00,70.7,66.0,29.94,NW,315,0.0,0.0,85,0.00,CLR,,0.00,0.0,WeatherDisplay:10.37,2013-04-14 02:06:00,
2013-04-13 22:20:00,69.7,65.7,29.95,NW,315,0.0,0.0,87,0.00,CLR,,0.00,0.0,WeatherDisplay:10.37,2013-04-14 02:20:00,
2013-04-13 22:27:00,69.3,65.6,29.95,NW,315,0.0,0.0,88,0.00,CLR,,0.00,0.0,WeatherDisplay:10.37,2013-04-14 02:27:00,
2013-04-13 22:33:00,68.8,65.4,29.95,NW,315,0.0,0.0,89,0.00,CLR,,0.00,0.0,WeatherDisplay:10.37,2013-04-14 02:33:00,
2013-04-13 22:50:00,68.2,65.2,29.96,NW,315,0.0,0.0,90,0.00,CLR,,0.00,0.0,WeatherDisplay:10.37,2013-04-14 02:50:00,
2013-04-13 22:55:00,68.1,65.4,29.95,NW,315,0.0,0.1,91,0.00,CLR,,0.00,0.0,WeatherDisplay:10.37,2013-04-14 02:55:00,
2013-04-13 23:00:00,67.8,65.1,29.95,NW,315,0.0,0.0,91,0.00,CLR,,0.00,0.0,WeatherDisplay:10.37,2013-04-14 03:00:00,
2013-04-13 23:05:00,67.8,65.1,29.95,NW,315,0.0,0.0,91,0.00,CLR,,0.00,0.0,WeatherDisplay:10.37,2013-04-14 03:05:00,
2013-04-13 23:36:00,67.2,64.8,29.95,NW,315,0.0,0.0,92,0.00,CLR,,0.00,0.0,WeatherDisplay:10.37,2013-04-14 03:36:00,
2013-04-13 23:46:00,67.0,64.9,29.95,NW,315,0.0,0.0,93,0.00,CLR,,0.00,0.0,WeatherDisplay:10.37,2013-04-14 03:46:00,
2013-04-13 23:55:00,67.0,64.9,29.95,NW,315,0.0,0.0,93,0.00,CLR,,0.00,0.0,WeatherDisplay:10.37,2013-04-14 03:55:00,